Bookmark and Share
Track history (hours):
 

San Juan Enterprise

More information available from US FCC via Universal Licensing System and Coast Guard Vessel Documentation Center.

Last reported at 2014-Apr-16 07:29 UTC. Time now 2014-Apr-16 07:50 UTC.
Position N 48°31' W 122°36'.

Length 30 m.

MMSI: 367313160.

NotesDate/timePositionNaut miles runAvg speedWind from/ knotsBaromVisibWave heightAir tempDewpointWater temp
2014-Apr-16 07:29N 48°31' W 122°36'0 0.0
2014-Apr-16 06:32N 48°31' W 122°36'0 0.0
2014-Apr-16 05:29N 48°31' W 122°36'0 0.0
2014-Apr-16 04:29N 48°31' W 122°36'0 0.0
2014-Apr-16 03:32N 48°31' W 122°36'0 0.0
2014-Apr-16 02:29N 48°31' W 122°36'0 0.0
2014-Apr-16 01:23N 48°31' W 122°36'0 0.0
2014-Apr-16 00:29N 48°31' W 122°36'0 0.0
2014-Apr-15 23:23N 48°31' W 122°36'0 0.0
2014-Apr-15 22:23N 48°31' W 122°36'0 0.0
2014-Apr-15 21:29N 48°31' W 122°36'0 0.0
2014-Apr-15 20:29N 48°31' W 122°36'0 0.0
2014-Apr-15 19:29N 48°31' W 122°36'0 0.0
2014-Apr-15 18:32N 48°31' W 122°36'0 0.0
2014-Apr-15 17:32N 48°31' W 122°36'0 0.0
2014-Apr-15 16:29N 48°31' W 122°36'0 0.0
2014-Apr-15 15:23N 48°31' W 122°36'0 0.0
2014-Apr-15 14:29N 48°31' W 122°36'0 0.0
2014-Apr-15 12:30N 48°31' W 122°36'0 0.0
2014-Apr-15 11:30N 48°31' W 122°36'0 0.0
2014-Apr-15 10:30N 48°31' W 122°36'0 0.0
2014-Apr-15 09:30N 48°31' W 122°36'0 0.0
2014-Apr-15 08:30N 48°31' W 122°36'0 0.0
2014-Apr-15 07:30N 48°31' W 122°36'0 0.0
2014-Apr-15 06:30N 48°31' W 122°36'0 0.0
2014-Apr-15 05:30N 48°31' W 122°36'0 0.0
2014-Apr-15 03:29N 48°31' W 122°36'0 0.0
2014-Apr-15 02:29N 48°31' W 122°36'0 0.0
2014-Apr-15 01:34N 48°31' W 122°36'5 4.6
2014-Apr-15 00:34N 48°28' W 122°41'6 5.8
2014-Apr-14 23:33N 48°25' W 122°34'0 0.0
2014-Apr-14 22:34N 48°25' W 122°34'0 0.0
2014-Apr-14 21:32N 48°25' W 122°34'6 5.8
2014-Apr-14 20:34N 48°27' W 122°41'5 4.9
2014-Apr-14 19:34N 48°31' W 122°37'0 0.0
2014-Apr-14 18:34N 48°31' W 122°37'0 0.0
2014-Apr-14 17:34N 48°31' W 122°37'0 0.4
2014-Apr-14 16:33N 48°31' W 122°36'0 0.0
2014-Apr-14 15:33N 48°31' W 122°36'0 0.0
2014-Apr-14 14:32N 48°31' W 122°36'0 0.0
2014-Apr-14 13:32N 48°31' W 122°36'0 0.0
2014-Apr-14 11:32N 48°31' W 122°36'0 0.0
2014-Apr-14 10:32N 48°31' W 122°36'0 0.0
2014-Apr-14 09:32N 48°31' W 122°36'0 0.0
2014-Apr-14 08:32N 48°31' W 122°36'0 0.0
2014-Apr-14 07:32N 48°31' W 122°36'0 0.0
2014-Apr-14 06:32N 48°31' W 122°36'0 0.0
2014-Apr-14 05:32N 48°31' W 122°36'0 0.0
2014-Apr-13 22:32N 48°31' W 122°36'0 0.0
2014-Apr-13 21:29N 48°31' W 122°36'0 0.0
2014-Apr-13 20:32N 48°31' W 122°36'0 0.0
2014-Apr-13 19:32N 48°31' W 122°36'0 0.0
2014-Apr-13 18:26N 48°31' W 122°36'0 0.0
2014-Apr-13 17:32N 48°31' W 122°36'0 0.0
2014-Apr-13 16:32N 48°31' W 122°36'0 0.0
2014-Apr-13 15:32N 48°31' W 122°36'0 0.0
2014-Apr-13 14:32N 48°31' W 122°36'0 0.0
2014-Apr-13 13:32N 48°31' W 122°36'0 0.0
2014-Apr-13 12:32N 48°31' W 122°36'0 0.0
2014-Apr-13 11:32N 48°31' W 122°36'0 0.0
2014-Apr-13 10:32N 48°31' W 122°36'0 0.0
2014-Apr-13 09:29N 48°31' W 122°36'0 0.0
2014-Apr-13 08:32N 48°31' W 122°36'0 0.0
2014-Apr-13 07:32N 48°31' W 122°36'0 0.0
2014-Apr-13 06:32N 48°31' W 122°36'0 0.0
2014-Apr-13 05:32N 48°31' W 122°36'0 0.0
2014-Apr-13 04:32N 48°31' W 122°36'0 0.0
2014-Apr-13 03:32N 48°31' W 122°36'0 0.0
2014-Apr-13 02:32N 48°31' W 122°36'0 0.0
2014-Apr-13 01:32N 48°31' W 122°36'0 0.0
2014-Apr-13 00:32N 48°31' W 122°36'0 0.0
2014-Apr-12 23:32N 48°31' W 122°36'0 0.0
2014-Apr-12 22:32N 48°31' W 122°36'0 0.0
2014-Apr-12 21:32N 48°31' W 122°36'0 0.0
2014-Apr-12 20:32N 48°31' W 122°36'0 0.0
2014-Apr-12 19:32N 48°31' W 122°36'0 0.0
2014-Apr-12 18:32N 48°31' W 122°36'0 0.0
2014-Apr-12 17:32N 48°31' W 122°36'0 0.0
2014-Apr-12 16:32N 48°31' W 122°36'0 0.0
2014-Apr-12 15:32N 48°31' W 122°36'0 0.0
2014-Apr-12 14:32N 48°31' W 122°36'0 0.0
2014-Apr-12 13:32N 48°31' W 122°36'0 0.0
2014-Apr-12 12:32N 48°31' W 122°36'0 0.0
2014-Apr-12 11:32N 48°31' W 122°36'0 0.0
2014-Apr-12 10:29N 48°31' W 122°36'0 0.0
2014-Apr-12 09:32N 48°31' W 122°36'0 0.0
2014-Apr-12 08:32N 48°31' W 122°36'0 0.0
2014-Apr-12 07:21N 48°31' W 122°36'0 0.0
2014-Apr-12 06:32N 48°31' W 122°36'0 0.0
2014-Apr-12 05:32N 48°31' W 122°36'0 0.0
2014-Apr-12 04:32N 48°31' W 122°36'0 0.0
2014-Apr-12 03:32N 48°31' W 122°36'0 0.0
2014-Apr-12 02:32N 48°31' W 122°36'0 0.0
2014-Apr-12 01:29N 48°31' W 122°36'0 0.0
2014-Apr-12 00:32N 48°31' W 122°36'0 0.0
2014-Apr-11 23:32N 48°31' W 122°36'0 0.0
2014-Apr-11 22:32N 48°31' W 122°36'0 0.0
2014-Apr-11 21:32N 48°31' W 122°36'0 0.0
2014-Apr-11 20:32N 48°31' W 122°36'0 0.0
2014-Apr-11 19:32N 48°31' W 122°36'0 0.0
2014-Apr-11 18:32N 48°31' W 122°36'0 0.0
2014-Apr-11 17:32N 48°31' W 122°36'0 0.0
2014-Apr-11 16:32N 48°31' W 122°36'0 0.0
2014-Apr-11 15:32N 48°31' W 122°36'0 0.0
2014-Apr-11 14:26N 48°31' W 122°36'0 0.0
2014-Apr-11 13:29N 48°31' W 122°36'0 0.0
2014-Apr-11 12:32N 48°31' W 122°36'0 0.0
2014-Apr-11 11:32N 48°31' W 122°36'0 0.0
2014-Apr-11 10:32N 48°31' W 122°36'0 0.0
2014-Apr-11 09:32N 48°31' W 122°36'0 0.0
2014-Apr-11 08:32N 48°31' W 122°36'0 0.0
2014-Apr-11 07:32N 48°31' W 122°36'0 0.0
2014-Apr-11 06:32N 48°31' W 122°36'0 0.0
2014-Apr-11 05:32N 48°31' W 122°36'0 0.0
2014-Apr-11 04:32N 48°31' W 122°36'0 0.0
2014-Apr-11 03:32N 48°31' W 122°36'0 0.0
2014-Apr-11 02:32N 48°31' W 122°36'0 0.0
2014-Apr-11 01:32N 48°31' W 122°36'0 0.0
2014-Apr-11 00:32N 48°31' W 122°36'0 0.0
2014-Apr-10 23:33N 48°31' W 122°36'8 8.5
2014-Apr-10 22:33N 48°32' W 122°49'4 4.0
2014-Apr-10 21:33N 48°32' W 122°43'4 4.4
2014-Apr-10 20:33N 48°31' W 122°36'0 0.0
2014-Apr-10 19:33N 48°31' W 122°36'7 7.2
2014-Apr-10 18:33N 48°34' W 122°46'2 2.4
2014-Apr-10 17:33N 48°36' W 122°49'0 0.2
2014-Apr-10 16:33N 48°36' W 122°49'5 5.3
2014-Apr-10 15:33N 48°32' W 122°43'5 4.6
2014-Apr-10 14:33N 48°31' W 122°36'0 0.0
2014-Apr-10 13:33N 48°31' W 122°36'0 0.0
2014-Apr-10 12:33N 48°31' W 122°36'0 0.0
2014-Apr-10 11:33N 48°31' W 122°36'0 0.0
2014-Apr-10 10:33N 48°31' W 122°36'0 0.0
2014-Apr-10 09:24N 48°31' W 122°36'0 0.0
2014-Apr-10 08:33N 48°31' W 122°36'0 0.0
2014-Apr-10 07:33N 48°31' W 122°36'0 0.0
2014-Apr-10 06:33N 48°31' W 122°36'0 0.0
2014-Apr-10 05:33N 48°31' W 122°36'0 0.0
2014-Apr-10 04:33N 48°31' W 122°36'0 0.0
2014-Apr-10 03:33N 48°31' W 122°36'0 0.0
2014-Apr-10 02:33N 48°31' W 122°36'0 0.0
2014-Apr-10 01:33N 48°31' W 122°36'0 0.0
2014-Apr-10 00:33N 48°31' W 122°36'0 0.0
2014-Apr-09 23:33N 48°31' W 122°36'0 0.0
2014-Apr-09 22:27N 48°31' W 122°36'0 0.0
2014-Apr-09 21:27N 48°31' W 122°36'0 0.0
2014-Apr-09 20:33N 48°31' W 122°36'0 0.0
2014-Apr-09 19:33N 48°31' W 122°36'0 0.0
2014-Apr-09 18:33N 48°31' W 122°36'0 0.0
2014-Apr-09 17:33N 48°31' W 122°36'0 0.0
2014-Apr-09 16:33N 48°31' W 122°36'0 0.0
2014-Apr-09 15:27N 48°31' W 122°36'0 0.0
2014-Apr-09 14:33N 48°31' W 122°36'0 0.0
2014-Apr-09 13:33N 48°31' W 122°36'0 0.0
2014-Apr-09 12:33N 48°31' W 122°36'0 0.0
2014-Apr-09 11:33N 48°31' W 122°36'0 0.0
2014-Apr-09 10:27N 48°31' W 122°36'0 0.0
2014-Apr-09 09:27N 48°31' W 122°36'0 0.0
2014-Apr-09 08:33N 48°31' W 122°36'0 0.0
2014-Apr-09 07:33N 48°31' W 122°36'0 0.0
2014-Apr-09 06:33N 48°31' W 122°36'0 0.0
2014-Apr-09 05:33N 48°31' W 122°36'0 0.0
2014-Apr-09 04:33N 48°31' W 122°36'0 0.0
2014-Apr-09 03:33N 48°31' W 122°36'5 5.4
2014-Apr-09 02:33N 48°32' W 122°44'8 7.6
2014-Apr-09 01:33N 48°33' W 122°56'4 4.1
2014-Apr-09 00:33N 48°36' W 123°01'2 2.1
2014-Apr-08 23:33N 48°34' W 123°01'4 4.3
2014-Apr-08 22:33N 48°34' W 122°54'8 7.8
2014-Apr-08 21:33N 48°32' W 122°43'4 4.3
2014-Apr-08 20:33N 48°31' W 122°36'0 0.0
2014-Apr-08 19:33N 48°31' W 122°36'0 0.0
2014-Apr-08 18:33N 48°31' W 122°36'5 4.7
2014-Apr-08 17:33N 48°32' W 122°43'5 5.0
2014-Apr-08 16:33N 48°34' W 122°50'7 7.2
2014-Apr-08 15:33N 48°32' W 122°40'2 2.2
2014-Apr-08 14:32N 48°31' W 122°36'0 0.0
2014-Apr-08 13:32N 48°31' W 122°36'0 0.0
2014-Apr-08 12:32N 48°31' W 122°36'0 0.0
2014-Apr-08 11:32N 48°31' W 122°36'0 0.0
2014-Apr-08 10:32N 48°31' W 122°36'0 0.0
2014-Apr-08 09:32N 48°31' W 122°36'0 0.0
2014-Apr-08 08:32N 48°31' W 122°36'0 0.0
2014-Apr-08 07:32N 48°31' W 122°36'0 0.0
2014-Apr-08 06:32N 48°31' W 122°36'0 0.0
2014-Apr-08 05:32N 48°31' W 122°36'0 0.0
2014-Apr-08 04:32N 48°31' W 122°36'0 0.0
2014-Apr-08 03:32N 48°31' W 122°36'0 0.0
2014-Apr-08 02:32N 48°31' W 122°36'0 0.0
2014-Apr-08 01:32N 48°31' W 122°36'0 0.0
2014-Apr-08 00:32N 48°31' W 122°36'0 0.0
2014-Apr-07 23:32N 48°31' W 122°36'0 0.0
2014-Apr-07 22:32N 48°31' W 122°36'0 0.0
2014-Apr-07 21:32N 48°31' W 122°36'0 0.0
2014-Apr-07 20:32N 48°31' W 122°36'0 0.0
2014-Apr-07 19:32N 48°31' W 122°36'0 0.0
2014-Apr-07 17:29N 48°31' W 122°36'0 0.0
2014-Apr-07 16:32N 48°31' W 122°36'0 0.0
2014-Apr-07 15:32N 48°31' W 122°36'0 0.0
2014-Apr-07 14:32N 48°31' W 122°36'0 0.0
2014-Apr-07 13:32N 48°31' W 122°36'0 0.0
2014-Apr-07 12:32N 48°31' W 122°36'0 0.0
2014-Apr-07 11:32N 48°31' W 122°36'0 0.0
2014-Apr-07 10:32N 48°31' W 122°36'0 0.0
2014-Apr-07 09:32N 48°31' W 122°36'0 0.0
2014-Apr-07 08:32N 48°31' W 122°36'0 0.0
2014-Apr-07 07:32N 48°31' W 122°36'0 0.0
2014-Apr-07 06:32N 48°31' W 122°36'0 0.0
2014-Apr-07 05:32N 48°31' W 122°36'0 0.0
2014-Apr-07 04:32N 48°31' W 122°36'0 0.0
2014-Apr-07 03:26N 48°31' W 122°36'0 0.0
2014-Apr-07 02:32N 48°31' W 122°36'0 0.0
2014-Apr-07 01:32N 48°31' W 122°36'0 0.0
2014-Apr-07 00:32N 48°31' W 122°36'0 0.0
2014-Apr-06 23:32N 48°31' W 122°36'0 0.0
2014-Apr-06 22:32N 48°31' W 122°36'0 0.0
2014-Apr-06 21:32N 48°31' W 122°36'0 0.0
2014-Apr-06 20:32N 48°31' W 122°36'0 0.0
2014-Apr-06 19:32N 48°31' W 122°36'0 0.0
2014-Apr-06 18:32N 48°31' W 122°36'0 0.0
2014-Apr-06 17:32N 48°31' W 122°36'0 0.0
2014-Apr-06 16:32N 48°31' W 122°36'0 0.0
2014-Apr-06 15:32N 48°31' W 122°36'0 0.0
2014-Apr-06 14:32N 48°31' W 122°36'0 0.0
2014-Apr-06 13:32N 48°31' W 122°36'0 0.0
2014-Apr-06 12:32N 48°31' W 122°36'0 0.0
2014-Apr-06 11:32N 48°31' W 122°36'0 0.0
2014-Apr-06 10:32N 48°31' W 122°36'0 0.0
2014-Apr-06 09:32N 48°31' W 122°36'0 0.0
2014-Apr-06 08:32N 48°31' W 122°36'0 0.0
2014-Apr-06 07:32N 48°31' W 122°36'  

Dump ship's entire track history

sailing weather and tide predictions

San Juan Enterprise — WDD9563 — position and weather